sensor_id;sensor_type;location;lat;lon;timestamp;P1;durP1;ratioP1;P2;durP2;ratioP2
3054;SDS011;1537;52.018;8.542;2022-11-15T00:00:31;10.13;;;8.10;;
3054;SDS011;1537;52.018;8.542;2022-11-15T00:04:13;12.37;;;9.00;;
3054;SDS011;1537;52.018;8.542;2022-11-15T00:07:57;12.10;;;8.77;;
3054;SDS011;1537;52.018;8.542;2022-11-15T00:11:40;10.43;;;9.33;;
3054;SDS011;1537;52.018;8.542;2022-11-15T00:15:22;9.53;;;7.13;;
3054;SDS011;1537;52.018;8.542;2022-11-15T00:19:04;8.63;;;7.17;;
3054;SDS011;1537;52.018;8.542;2022-11-15T00:22:47;11.20;;;7.70;;
3054;SDS011;1537;52.018;8.542;2022-11-15T00:26:30;11.20;;;7.17;;
3054;SDS011;1537;52.018;8.542;2022-11-15T00:30:13;8.90;;;7.50;;
3054;SDS011;1537;52.018;8.542;2022-11-15T00:33:55;8.80;;;6.80;;
3054;SDS011;1537;52.018;8.542;2022-11-15T00:37:37;9.33;;;6.80;;
3054;SDS011;1537;52.018;8.542;2022-11-15T00:41:19;9.50;;;8.03;;
3054;SDS011;1537;52.018;8.542;2022-11-15T00:45:03;10.13;;;7.57;;
3054;SDS011;1537;52.018;8.542;2022-11-15T00:48:46;10.50;;;7.50;;
3054;SDS011;1537;52.018;8.542;2022-11-15T00:52:28;13.00;;;7.00;;
3054;SDS011;1537;52.018;8.542;2022-11-15T00:56:10;8.27;;;6.40;;
3054;SDS011;1537;52.018;8.542;2022-11-15T00:59:53;10.50;;;7.10;;
3054;SDS011;1537;52.018;8.542;2022-11-15T01:03:37;9.10;;;6.63;;
3054;SDS011;1537;52.018;8.542;2022-11-15T01:07:20;8.10;;;6.57;;
3054;SDS011;1537;52.018;8.542;2022-11-15T01:11:03;10.27;;;6.67;;
3054;SDS011;1537;52.018;8.542;2022-11-15T01:14:46;11.27;;;8.33;;
3054;SDS011;1537;52.018;8.542;2022-11-15T01:18:28;9.33;;;6.50;;
3054;SDS011;1537;52.018;8.542;2022-11-15T01:22:12;10.40;;;7.80;;
3054;SDS011;1537;52.018;8.542;2022-11-15T01:25:58;10.27;;;6.83;;
3054;SDS011;1537;52.018;8.542;2022-11-15T01:29:40;7.53;;;6.47;;
3054;SDS011;1537;52.018;8.542;2022-11-15T01:33:23;13.13;;;8.17;;
3054;SDS011;1537;52.018;8.542;2022-11-15T01:37:05;10.00;;;6.37;;
3054;SDS011;1537;52.018;8.542;2022-11-15T01:40:48;10.07;;;7.80;;
3054;SDS011;1537;52.018;8.542;2022-11-15T01:44:36;10.03;;;7.27;;
3054;SDS011;1537;52.018;8.542;2022-11-15T01:48:21;9.67;;;6.90;;
3054;SDS011;1537;52.018;8.542;2022-11-15T01:52:07;8.03;;;6.80;;
3054;SDS011;1537;52.018;8.542;2022-11-15T01:55:53;11.00;;;8.17;;
3054;SDS011;1537;52.018;8.542;2022-11-15T01:59:37;9.93;;;8.43;;
3054;SDS011;1537;52.018;8.542;2022-11-15T02:03:21;10.70;;;7.57;;
3054;SDS011;1537;52.018;8.542;2022-11-15T02:07:08;9.50;;;7.77;;
3054;SDS011;1537;52.018;8.542;2022-11-15T02:10:54;12.53;;;8.70;;
3054;SDS011;1537;52.018;8.542;2022-11-15T02:14:36;11.33;;;8.60;;
3054;SDS011;1537;52.018;8.542;2022-11-15T02:18:22;9.73;;;8.37;;
3054;SDS011;1537;52.018;8.542;2022-11-15T02:22:10;12.83;;;8.50;;
3054;SDS011;1537;52.018;8.542;2022-11-15T02:26:11;9.57;;;7.20;;
3054;SDS011;1537;52.018;8.542;2022-11-15T02:30:18;12.60;;;7.97;;
3054;SDS011;1537;52.018;8.542;2022-11-15T02:34:04;13.70;;;8.57;;
3054;SDS011;1537;52.018;8.542;2022-11-15T02:37:55;18.27;;;9.03;;
3054;SDS011;1537;52.018;8.542;2022-11-15T02:41:40;14.60;;;9.23;;
3054;SDS011;1537;52.018;8.542;2022-11-15T02:45:30;13.17;;;9.00;;
3054;SDS011;1537;52.018;8.542;2022-11-15T02:49:16;12.97;;;9.60;;
3054;SDS011;1537;52.018;8.542;2022-11-15T02:52:59;12.50;;;9.40;;
3054;SDS011;1537;52.018;8.542;2022-11-15T02:56:42;13.30;;;8.80;;
3054;SDS011;1537;52.018;8.542;2022-11-15T03:00:26;16.33;;;9.93;;
3054;SDS011;1537;52.018;8.542;2022-11-15T03:04:19;12.33;;;10.60;;
3054;SDS011;1537;52.018;8.542;2022-11-15T03:08:08;12.10;;;7.90;;
3054;SDS011;1537;52.018;8.542;2022-11-15T03:11:58;12.03;;;8.43;;
3054;SDS011;1537;52.018;8.542;2022-11-15T03:15:55;13.90;;;10.33;;
3054;SDS011;1537;52.018;8.542;2022-11-15T03:19:45;11.50;;;9.20;;
3054;SDS011;1537;52.018;8.542;2022-11-15T03:23:28;12.20;;;9.00;;
3054;SDS011;1537;52.018;8.542;2022-11-15T03:27:13;13.10;;;9.87;;
3054;SDS011;1537;52.018;8.542;2022-11-15T03:31:02;12.90;;;10.10;;
3054;SDS011;1537;52.018;8.542;2022-11-15T03:35:06;14.30;;;10.13;;
3054;SDS011;1537;52.018;8.542;2022-11-15T03:38:52;15.17;;;10.90;;
3054;SDS011;1537;52.018;8.542;2022-11-15T03:42:39;12.03;;;10.03;;
3054;SDS011;1537;52.018;8.542;2022-11-15T03:46:31;12.90;;;9.83;;
3054;SDS011;1537;52.018;8.542;2022-11-15T03:50:16;15.53;;;10.47;;
3054;SDS011;1537;52.018;8.542;2022-11-15T03:54:01;19.23;;;10.60;;
3054;SDS011;1537;52.018;8.542;2022-11-15T03:57:44;14.40;;;10.40;;
3054;SDS011;1537;52.018;8.542;2022-11-15T04:01:30;16.33;;;10.93;;
3054;SDS011;1537;52.018;8.542;2022-11-15T04:05:12;12.77;;;10.93;;
3054;SDS011;1537;52.018;8.542;2022-11-15T04:08:55;14.23;;;10.70;;
3054;SDS011;1537;52.018;8.542;2022-11-15T04:12:38;12.30;;;10.07;;
3054;SDS011;1537;52.018;8.542;2022-11-15T04:16:23;16.83;;;10.73;;
3054;SDS011;1537;52.018;8.542;2022-11-15T04:20:08;15.57;;;10.20;;
3054;SDS011;1537;52.018;8.542;2022-11-15T04:24:09;16.10;;;10.93;;
3054;SDS011;1537;52.018;8.542;2022-11-15T04:27:54;14.83;;;10.57;;
3054;SDS011;1537;52.018;8.542;2022-11-15T04:31:36;16.10;;;11.30;;
3054;SDS011;1537;52.018;8.542;2022-11-15T04:35:20;16.30;;;11.07;;
3054;SDS011;1537;52.018;8.542;2022-11-15T04:39:03;17.00;;;10.20;;
3054;SDS011;1537;52.018;8.542;2022-11-15T04:42:45;16.77;;;10.90;;
3054;SDS011;1537;52.018;8.542;2022-11-15T04:46:27;14.93;;;11.67;;
3054;SDS011;1537;52.018;8.542;2022-11-15T04:50:10;13.60;;;10.73;;
3054;SDS011;1537;52.018;8.542;2022-11-15T04:53:55;12.57;;;10.97;;
3054;SDS011;1537;52.018;8.542;2022-11-15T04:57:37;15.17;;;11.43;;
3054;SDS011;1537;52.018;8.542;2022-11-15T05:01:20;13.00;;;10.03;;
3054;SDS011;1537;52.018;8.542;2022-11-15T05:05:02;13.50;;;10.50;;
3054;SDS011;1537;52.018;8.542;2022-11-15T05:08:45;15.80;;;11.20;;
3054;SDS011;1537;52.018;8.542;2022-11-15T05:12:28;14.13;;;11.47;;
3054;SDS011;1537;52.018;8.542;2022-11-15T05:16:10;13.63;;;10.37;;
3054;SDS011;1537;52.018;8.542;2022-11-15T05:19:52;15.60;;;10.80;;
3054;SDS011;1537;52.018;8.542;2022-11-15T05:23:34;15.03;;;10.83;;
3054;SDS011;1537;52.018;8.542;2022-11-15T05:27:17;12.73;;;10.43;;
3054;SDS011;1537;52.018;8.542;2022-11-15T05:31:01;14.10;;;10.60;;
3054;SDS011;1537;52.018;8.542;2022-11-15T05:34:44;13.47;;;10.93;;
3054;SDS011;1537;52.018;8.542;2022-11-15T05:38:27;16.03;;;10.20;;
3054;SDS011;1537;52.018;8.542;2022-11-15T05:42:11;15.77;;;10.50;;
3054;SDS011;1537;52.018;8.542;2022-11-15T05:45:55;14.77;;;9.43;;
3054;SDS011;1537;52.018;8.542;2022-11-15T05:49:40;13.10;;;10.83;;
3054;SDS011;1537;52.018;8.542;2022-11-15T05:53:25;12.33;;;10.03;;
3054;SDS011;1537;52.018;8.542;2022-11-15T05:57:08;12.27;;;10.30;;
3054;SDS011;1537;52.018;8.542;2022-11-15T06:00:51;12.57;;;9.30;;
3054;SDS011;1537;52.018;8.542;2022-11-15T06:04:33;12.00;;;9.80;;
3054;SDS011;1537;52.018;8.542;2022-11-15T06:08:16;11.30;;;8.37;;
3054;SDS011;1537;52.018;8.542;2022-11-15T06:11:59;10.80;;;8.60;;
3054;SDS011;1537;52.018;8.542;2022-11-15T06:15:41;14.00;;;9.40;;
3054;SDS011;1537;52.018;8.542;2022-11-15T06:19:23;10.37;;;8.83;;
3054;SDS011;1537;52.018;8.542;2022-11-15T06:23:06;11.10;;;9.47;;
3054;SDS011;1537;52.018;8.542;2022-11-15T06:26:49;10.83;;;8.03;;
3054;SDS011;1537;52.018;8.542;2022-11-15T06:30:32;13.70;;;10.03;;
3054;SDS011;1537;52.018;8.542;2022-11-15T06:34:14;13.33;;;9.57;;
3054;SDS011;1537;52.018;8.542;2022-11-15T06:37:59;9.60;;;8.53;;
3054;SDS011;1537;52.018;8.542;2022-11-15T06:41:44;12.53;;;8.13;;
3054;SDS011;1537;52.018;8.542;2022-11-15T06:45:28;12.43;;;9.53;;
3054;SDS011;1537;52.018;8.542;2022-11-15T06:49:10;12.40;;;9.13;;
3054;SDS011;1537;52.018;8.542;2022-11-15T06:52:52;12.87;;;8.60;;
3054;SDS011;1537;52.018;8.542;2022-11-15T06:56:35;10.80;;;9.57;;
3054;SDS011;1537;52.018;8.542;2022-11-15T07:00:18;9.90;;;8.30;;
3054;SDS011;1537;52.018;8.542;2022-11-15T07:04:03;12.40;;;8.80;;
3054;SDS011;1537;52.018;8.542;2022-11-15T07:07:50;11.27;;;9.10;;
3054;SDS011;1537;52.018;8.542;2022-11-15T07:11:33;11.60;;;8.40;;
3054;SDS011;1537;52.018;8.542;2022-11-15T07:15:16;10.90;;;7.80;;
3054;SDS011;1537;52.018;8.542;2022-11-15T07:18:58;9.77;;;8.27;;
3054;SDS011;1537;52.018;8.542;2022-11-15T07:22:42;12.87;;;8.40;;
3054;SDS011;1537;52.018;8.542;2022-11-15T07:26:25;10.23;;;7.60;;
3054;SDS011;1537;52.018;8.542;2022-11-15T07:30:08;10.57;;;7.90;;
3054;SDS011;1537;52.018;8.542;2022-11-15T07:33:54;10.73;;;7.03;;
3054;SDS011;1537;52.018;8.542;2022-11-15T07:37:36;10.33;;;7.13;;
3054;SDS011;1537;52.018;8.542;2022-11-15T07:41:20;9.93;;;8.07;;
3054;SDS011;1537;52.018;8.542;2022-11-15T07:45:02;11.07;;;8.27;;
3054;SDS011;1537;52.018;8.542;2022-11-15T07:48:45;9.77;;;7.00;;
3054;SDS011;1537;52.018;8.542;2022-11-15T07:52:27;8.70;;;6.37;;
3054;SDS011;1537;52.018;8.542;2022-11-15T07:56:10;10.27;;;6.87;;
3054;SDS011;1537;52.018;8.542;2022-11-15T07:59:54;9.30;;;5.93;;
3054;SDS011;1537;52.018;8.542;2022-11-15T08:03:36;10.93;;;7.00;;
3054;SDS011;1537;52.018;8.542;2022-11-15T08:07:19;10.00;;;7.50;;
3054;SDS011;1537;52.018;8.542;2022-11-15T08:11:01;9.00;;;6.27;;
3054;SDS011;1537;52.018;8.542;2022-11-15T08:14:43;11.33;;;7.23;;
3054;SDS011;1537;52.018;8.542;2022-11-15T08:18:27;8.00;;;5.87;;
3054;SDS011;1537;52.018;8.542;2022-11-15T08:22:10;8.60;;;6.20;;
3054;SDS011;1537;52.018;8.542;2022-11-15T08:25:52;10.93;;;6.63;;
3054;SDS011;1537;52.018;8.542;2022-11-15T08:29:43;7.67;;;6.20;;
3054;SDS011;1537;52.018;8.542;2022-11-15T08:33:27;7.47;;;5.40;;
3054;SDS011;1537;52.018;8.542;2022-11-15T08:37:10;8.40;;;5.60;;
3054;SDS011;1537;52.018;8.542;2022-11-15T08:40:53;6.10;;;4.57;;
3054;SDS011;1537;52.018;8.542;2022-11-15T08:44:43;10.07;;;5.20;;
3054;SDS011;1537;52.018;8.542;2022-11-15T08:48:25;9.30;;;5.17;;
3054;SDS011;1537;52.018;8.542;2022-11-15T08:52:08;12.27;;;4.87;;
3054;SDS011;1537;52.018;8.542;2022-11-15T08:55:51;5.97;;;3.67;;
3054;SDS011;1537;52.018;8.542;2022-11-15T08:59:33;5.80;;;3.63;;
3054;SDS011;1537;52.018;8.542;2022-11-15T09:03:15;8.47;;;3.93;;
3054;SDS011;1537;52.018;8.542;2022-11-15T09:06:57;6.43;;;4.27;;
3054;SDS011;1537;52.018;8.542;2022-11-15T09:10:41;8.50;;;4.10;;
3054;SDS011;1537;52.018;8.542;2022-11-15T09:14:24;6.33;;;3.67;;
3054;SDS011;1537;52.018;8.542;2022-11-15T09:18:06;5.50;;;3.47;;
3054;SDS011;1537;52.018;8.542;2022-11-15T09:21:48;7.07;;;4.00;;
3054;SDS011;1537;52.018;8.542;2022-11-15T09:25:31;6.80;;;3.67;;
3054;SDS011;1537;52.018;8.542;2022-11-15T09:29:15;5.60;;;3.37;;
3054;SDS011;1537;52.018;8.542;2022-11-15T09:32:57;7.03;;;3.10;;
3054;SDS011;1537;52.018;8.542;2022-11-15T09:36:39;7.20;;;2.63;;
3054;SDS011;1537;52.018;8.542;2022-11-15T09:40:22;5.17;;;3.40;;
3054;SDS011;1537;52.018;8.542;2022-11-15T09:44:14;5.03;;;2.80;;
3054;SDS011;1537;52.018;8.542;2022-11-15T09:48:20;14.63;;;8.70;;
3054;SDS011;1537;52.018;8.542;2022-11-15T09:52:28;5.20;;;3.20;;
3054;SDS011;1537;52.018;8.542;2022-11-15T09:55:54;6.13;;;3.80;;
3054;SDS011;1537;52.018;8.542;2022-11-15T09:59:25;6.73;;;3.57;;
3054;SDS011;1537;52.018;8.542;2022-11-15T10:03:07;5.50;;;2.83;;
3054;SDS011;1537;52.018;8.542;2022-11-15T10:06:34;8.40;;;3.30;;
3054;SDS011;1537;52.018;8.542;2022-11-15T10:10:04;5.93;;;2.57;;
3054;SDS011;1537;52.018;8.542;2022-11-15T10:13:39;6.30;;;3.17;;
3054;SDS011;1537;52.018;8.542;2022-11-15T10:17:09;5.47;;;3.00;;
3054;SDS011;1537;52.018;8.542;2022-11-15T10:20:54;4.77;;;2.60;;
3054;SDS011;1537;52.018;8.542;2022-11-15T10:24:24;4.57;;;2.47;;
3054;SDS011;1537;52.018;8.542;2022-11-15T10:27:52;5.33;;;3.13;;
3054;SDS011;1537;52.018;8.542;2022-11-15T10:31:22;7.17;;;2.80;;
3054;SDS011;1537;52.018;8.542;2022-11-15T10:34:49;4.50;;;2.30;;
3054;SDS011;1537;52.018;8.542;2022-11-15T10:38:13;5.60;;;2.67;;
3054;SDS011;1537;52.018;8.542;2022-11-15T10:41:37;4.87;;;2.40;;
3054;SDS011;1537;52.018;8.542;2022-11-15T10:45:08;6.17;;;2.17;;
3054;SDS011;1537;52.018;8.542;2022-11-15T10:48:46;5.30;;;2.77;;
3054;SDS011;1537;52.018;8.542;2022-11-15T10:52:16;4.77;;;2.57;;
3054;SDS011;1537;52.018;8.542;2022-11-15T10:55:42;4.83;;;2.67;;
3054;SDS011;1537;52.018;8.542;2022-11-15T10:59:14;5.10;;;2.67;;
3054;SDS011;1537;52.018;8.542;2022-11-15T11:02:56;5.97;;;2.50;;
3054;SDS011;1537;52.018;8.542;2022-11-15T11:06:21;5.17;;;2.47;;
3054;SDS011;1537;52.018;8.542;2022-11-15T11:09:48;4.30;;;2.53;;
3054;SDS011;1537;52.018;8.542;2022-11-15T11:13:22;5.00;;;2.23;;
3054;SDS011;1537;52.018;8.542;2022-11-15T11:16:47;4.83;;;2.83;;
3054;SDS011;1537;52.018;8.542;2022-11-15T11:20:17;4.70;;;2.80;;
3054;SDS011;1537;52.018;8.542;2022-11-15T11:23:48;5.77;;;3.10;;
3054;SDS011;1537;52.018;8.542;2022-11-15T11:27:21;5.67;;;2.60;;
3054;SDS011;1537;52.018;8.542;2022-11-15T11:30:56;7.20;;;3.13;;
3054;SDS011;1537;52.018;8.542;2022-11-15T11:34:40;4.57;;;2.70;;
3054;SDS011;1537;52.018;8.542;2022-11-15T11:38:23;6.03;;;3.03;;
3054;SDS011;1537;52.018;8.542;2022-11-15T11:42:11;8.10;;;3.10;;
3054;SDS011;1537;52.018;8.542;2022-11-15T11:45:47;6.37;;;2.60;;
3054;SDS011;1537;52.018;8.542;2022-11-15T11:49:31;8.80;;;3.17;;
3054;SDS011;1537;52.018;8.542;2022-11-15T11:53:02;6.60;;;3.20;;
3054;SDS011;1537;52.018;8.542;2022-11-15T11:56:29;5.07;;;3.33;;
3054;SDS011;1537;52.018;8.542;2022-11-15T11:59:56;5.13;;;3.23;;
3054;SDS011;1537;52.018;8.542;2022-11-15T12:03:36;5.23;;;3.13;;
3054;SDS011;1537;52.018;8.542;2022-11-15T12:07:07;5.53;;;3.23;;
3054;SDS011;1537;52.018;8.542;2022-11-15T12:10:34;6.33;;;3.53;;
3054;SDS011;1537;52.018;8.542;2022-11-15T12:14:01;5.33;;;3.50;;
3054;SDS011;1537;52.018;8.542;2022-11-15T12:17:32;7.90;;;3.50;;
3054;SDS011;1537;52.018;8.542;2022-11-15T12:20:58;5.60;;;3.20;;
3054;SDS011;1537;52.018;8.542;2022-11-15T12:24:26;5.00;;;3.03;;
3054;SDS011;1537;52.018;8.542;2022-11-15T12:27:56;5.90;;;3.27;;
3054;SDS011;1537;52.018;8.542;2022-11-15T12:31:24;4.83;;;2.80;;
3054;SDS011;1537;52.018;8.542;2022-11-15T12:34:55;6.43;;;3.30;;
3054;SDS011;1537;52.018;8.542;2022-11-15T12:42:38;4.93;;;2.90;;
3054;SDS011;1537;52.018;8.542;2022-11-15T12:46:04;6.73;;;2.97;;
3054;SDS011;1537;52.018;8.542;2022-11-15T12:49:43;6.23;;;3.03;;
3054;SDS011;1537;52.018;8.542;2022-11-15T12:53:27;7.03;;;2.77;;
3054;SDS011;1537;52.018;8.542;2022-11-15T13:00:53;7.27;;;2.80;;
3054;SDS011;1537;52.018;8.542;2022-11-15T13:04:23;5.13;;;2.70;;
3054;SDS011;1537;52.018;8.542;2022-11-15T13:07:56;4.97;;;2.77;;
3054;SDS011;1537;52.018;8.542;2022-11-15T13:19:04;5.37;;;2.60;;
3054;SDS011;1537;52.018;8.542;2022-11-15T13:22:28;5.70;;;2.80;;
3054;SDS011;1537;52.018;8.542;2022-11-15T13:26:14;4.40;;;2.40;;
3054;SDS011;1537;52.018;8.542;2022-11-15T13:29:38;7.10;;;3.13;;
3054;SDS011;1537;52.018;8.542;2022-11-15T13:33:09;5.90;;;3.50;;
3054;SDS011;1537;52.018;8.542;2022-11-15T13:36:38;6.67;;;2.87;;
3054;SDS011;1537;52.018;8.542;2022-11-15T13:43:49;4.60;;;2.70;;
3054;SDS011;1537;52.018;8.542;2022-11-15T13:47:14;7.10;;;2.80;;
3054;SDS011;1537;52.018;8.542;2022-11-15T13:50:44;5.60;;;2.70;;
3054;SDS011;1537;52.018;8.542;2022-11-15T13:54:12;5.57;;;2.73;;
3054;SDS011;1537;52.018;8.542;2022-11-15T13:57:41;4.90;;;2.93;;
3054;SDS011;1537;52.018;8.542;2022-11-15T14:01:11;4.17;;;2.53;;
3054;SDS011;1537;52.018;8.542;2022-11-15T14:04:39;5.50;;;3.20;;
3054;SDS011;1537;52.018;8.542;2022-11-15T14:08:23;5.20;;;3.00;;
3054;SDS011;1537;52.018;8.542;2022-11-15T14:11:51;8.30;;;3.87;;
3054;SDS011;1537;52.018;8.542;2022-11-15T14:15:19;4.80;;;2.97;;
3054;SDS011;1537;52.018;8.542;2022-11-15T14:18:50;8.37;;;3.57;;
3054;SDS011;1537;52.018;8.542;2022-11-15T14:22:16;6.73;;;4.07;;
3054;SDS011;1537;52.018;8.542;2022-11-15T14:25:51;8.47;;;3.60;;
3054;SDS011;1537;52.018;8.542;2022-11-15T14:29:22;5.40;;;3.30;;
3054;SDS011;1537;52.018;8.542;2022-11-15T14:32:48;7.43;;;4.13;;
3054;SDS011;1537;52.018;8.542;2022-11-15T14:36:17;6.97;;;3.70;;
3054;SDS011;1537;52.018;8.542;2022-11-15T14:39:42;5.90;;;3.60;;
3054;SDS011;1537;52.018;8.542;2022-11-15T14:43:08;6.00;;;3.73;;
3054;SDS011;1537;52.018;8.542;2022-11-15T14:46:33;5.60;;;3.60;;
3054;SDS011;1537;52.018;8.542;2022-11-15T14:49:56;6.30;;;4.27;;
3054;SDS011;1537;52.018;8.542;2022-11-15T14:53:20;6.87;;;3.93;;
3054;SDS011;1537;52.018;8.542;2022-11-15T14:56:43;7.03;;;3.57;;
3054;SDS011;1537;52.018;8.542;2022-11-15T15:00:09;5.07;;;3.10;;
3054;SDS011;1537;52.018;8.542;2022-11-15T15:03:33;6.70;;;3.67;;
3054;SDS011;1537;52.018;8.542;2022-11-15T15:06:57;6.07;;;3.30;;
3054;SDS011;1537;52.018;8.542;2022-11-15T15:10:22;6.90;;;3.53;;
3054;SDS011;1537;52.018;8.542;2022-11-15T15:14:02;6.33;;;3.77;;
3054;SDS011;1537;52.018;8.542;2022-11-15T15:17:27;6.47;;;3.73;;
3054;SDS011;1537;52.018;8.542;2022-11-15T15:20:53;7.87;;;4.10;;
3054;SDS011;1537;52.018;8.542;2022-11-15T15:24:19;5.80;;;3.10;;
3054;SDS011;1537;52.018;8.542;2022-11-15T15:27:43;5.00;;;3.00;;
3054;SDS011;1537;52.018;8.542;2022-11-15T15:31:07;6.70;;;3.67;;
3054;SDS011;1537;52.018;8.542;2022-11-15T15:34:32;10.63;;;2.97;;
3054;SDS011;1537;52.018;8.542;2022-11-15T15:37:56;5.33;;;3.47;;
3054;SDS011;1537;52.018;8.542;2022-11-15T15:41:20;9.47;;;3.73;;
3054;SDS011;1537;52.018;8.542;2022-11-15T15:44:44;7.70;;;3.83;;
3054;SDS011;1537;52.018;8.542;2022-11-15T15:48:09;7.00;;;3.43;;
3054;SDS011;1537;52.018;8.542;2022-11-15T15:51:36;5.70;;;2.97;;
3054;SDS011;1537;52.018;8.542;2022-11-15T15:55:00;7.50;;;3.80;;
3054;SDS011;1537;52.018;8.542;2022-11-15T15:58:24;5.63;;;3.13;;
3054;SDS011;1537;52.018;8.542;2022-11-15T16:01:47;4.83;;;3.10;;
3054;SDS011;1537;52.018;8.542;2022-11-15T16:05:11;6.90;;;4.10;;
3054;SDS011;1537;52.018;8.542;2022-11-15T16:08:37;5.07;;;3.30;;
3054;SDS011;1537;52.018;8.542;2022-11-15T16:12:21;5.67;;;3.37;;
3054;SDS011;1537;52.018;8.542;2022-11-15T16:15:44;7.17;;;3.40;;
3054;SDS011;1537;52.018;8.542;2022-11-15T16:19:10;5.20;;;2.83;;
3054;SDS011;1537;52.018;8.542;2022-11-15T16:22:34;4.70;;;2.73;;
3054;SDS011;1537;52.018;8.542;2022-11-15T16:25:59;4.83;;;2.83;;
3054;SDS011;1537;52.018;8.542;2022-11-15T16:29:24;7.20;;;3.33;;
3054;SDS011;1537;52.018;8.542;2022-11-15T16:32:48;5.80;;;3.30;;
3054;SDS011;1537;52.018;8.542;2022-11-15T16:36:15;5.20;;;2.80;;
3054;SDS011;1537;52.018;8.542;2022-11-15T16:39:50;5.13;;;3.43;;
3054;SDS011;1537;52.018;8.542;2022-11-15T16:43:23;4.57;;;2.70;;
3054;SDS011;1537;52.018;8.542;2022-11-15T16:46:46;6.10;;;3.33;;
3054;SDS011;1537;52.018;8.542;2022-11-15T16:50:15;6.43;;;4.40;;
3054;SDS011;1537;52.018;8.542;2022-11-15T16:53:44;5.20;;;3.40;;
3054;SDS011;1537;52.018;8.542;2022-11-15T16:57:10;5.23;;;3.20;;
3054;SDS011;1537;52.018;8.542;2022-11-15T17:00:35;6.87;;;3.37;;
3054;SDS011;1537;52.018;8.542;2022-11-15T17:03:58;7.20;;;3.63;;
3054;SDS011;1537;52.018;8.542;2022-11-15T17:07:33;6.60;;;3.40;;
3054;SDS011;1537;52.018;8.542;2022-11-15T17:10:57;6.37;;;4.00;;
3054;SDS011;1537;52.018;8.542;2022-11-15T17:14:20;5.47;;;3.40;;
3054;SDS011;1537;52.018;8.542;2022-11-15T17:17:49;5.00;;;3.20;;
3054;SDS011;1537;52.018;8.542;2022-11-15T17:21:14;5.23;;;3.10;;
3054;SDS011;1537;52.018;8.542;2022-11-15T17:24:39;5.77;;;3.27;;
3054;SDS011;1537;52.018;8.542;2022-11-15T17:28:02;6.67;;;3.67;;
3054;SDS011;1537;52.018;8.542;2022-11-15T17:31:26;8.53;;;3.60;;
3054;SDS011;1537;52.018;8.542;2022-11-15T17:34:53;5.97;;;3.30;;
3054;SDS011;1537;52.018;8.542;2022-11-15T17:38:17;5.80;;;3.60;;
3054;SDS011;1537;52.018;8.542;2022-11-15T17:41:40;4.50;;;3.10;;
3054;SDS011;1537;52.018;8.542;2022-11-15T17:45:05;5.40;;;3.40;;
3054;SDS011;1537;52.018;8.542;2022-11-15T17:48:31;6.07;;;3.40;;
3054;SDS011;1537;52.018;8.542;2022-11-15T17:51:57;5.63;;;3.30;;
3054;SDS011;1537;52.018;8.542;2022-11-15T17:55:21;4.83;;;3.73;;
3054;SDS011;1537;52.018;8.542;2022-11-15T17:58:46;6.83;;;3.70;;
3054;SDS011;1537;52.018;8.542;2022-11-15T18:02:10;4.83;;;3.27;;
3054;SDS011;1537;52.018;8.542;2022-11-15T18:05:34;6.03;;;3.60;;
3054;SDS011;1537;52.018;8.542;2022-11-15T18:08:59;5.57;;;3.53;;
3054;SDS011;1537;52.018;8.542;2022-11-15T18:12:24;6.20;;;3.23;;
3054;SDS011;1537;52.018;8.542;2022-11-15T18:15:48;6.80;;;3.90;;
3054;SDS011;1537;52.018;8.542;2022-11-15T18:19:16;6.73;;;3.60;;
3054;SDS011;1537;52.018;8.542;2022-11-15T18:22:39;6.13;;;3.93;;
3054;SDS011;1537;52.018;8.542;2022-11-15T18:26:05;6.10;;;3.80;;
3054;SDS011;1537;52.018;8.542;2022-11-15T18:29:30;7.23;;;4.63;;
3054;SDS011;1537;52.018;8.542;2022-11-15T18:32:55;5.40;;;3.60;;
3054;SDS011;1537;52.018;8.542;2022-11-15T18:36:19;4.90;;;3.27;;
3054;SDS011;1537;52.018;8.542;2022-11-15T18:39:45;6.23;;;3.80;;
3054;SDS011;1537;52.018;8.542;2022-11-15T18:43:16;7.60;;;4.13;;
3054;SDS011;1537;52.018;8.542;2022-11-15T18:46:39;6.20;;;3.80;;
3054;SDS011;1537;52.018;8.542;2022-11-15T18:50:06;5.83;;;3.93;;
3054;SDS011;1537;52.018;8.542;2022-11-15T18:53:30;5.57;;;3.57;;
3054;SDS011;1537;52.018;8.542;2022-11-15T18:56:54;6.00;;;3.90;;
3054;SDS011;1537;52.018;8.542;2022-11-15T19:00:19;6.13;;;3.80;;
3054;SDS011;1537;52.018;8.542;2022-11-15T19:03:43;4.80;;;3.20;;
3054;SDS011;1537;52.018;8.542;2022-11-15T19:07:08;7.00;;;4.03;;
3054;SDS011;1537;52.018;8.542;2022-11-15T19:10:33;5.17;;;3.27;;
3054;SDS011;1537;52.018;8.542;2022-11-15T19:13:57;7.13;;;3.47;;
3054;SDS011;1537;52.018;8.542;2022-11-15T19:17:25;9.10;;;4.50;;
3054;SDS011;1537;52.018;8.542;2022-11-15T19:20:49;4.73;;;3.10;;
3054;SDS011;1537;52.018;8.542;2022-11-15T19:24:12;5.70;;;3.47;;
3054;SDS011;1537;52.018;8.542;2022-11-15T19:27:36;7.10;;;3.63;;
3054;SDS011;1537;52.018;8.542;2022-11-15T19:31:03;4.97;;;2.73;;
3054;SDS011;1537;52.018;8.542;2022-11-15T19:34:30;5.10;;;3.27;;
3054;SDS011;1537;52.018;8.542;2022-11-15T19:37:53;5.57;;;3.97;;
3054;SDS011;1537;52.018;8.542;2022-11-15T19:41:18;7.80;;;3.20;;
3054;SDS011;1537;52.018;8.542;2022-11-15T19:44:43;5.00;;;3.00;;
3054;SDS011;1537;52.018;8.542;2022-11-15T19:48:07;5.87;;;3.60;;
3054;SDS011;1537;52.018;8.542;2022-11-15T19:51:32;5.43;;;2.60;;
3054;SDS011;1537;52.018;8.542;2022-11-15T19:54:56;4.80;;;2.87;;
3054;SDS011;1537;52.018;8.542;2022-11-15T19:58:20;5.03;;;3.47;;
3054;SDS011;1537;52.018;8.542;2022-11-15T20:01:43;6.30;;;3.60;;
3054;SDS011;1537;52.018;8.542;2022-11-15T20:05:07;5.03;;;3.00;;
3054;SDS011;1537;52.018;8.542;2022-11-15T20:08:40;6.20;;;3.93;;
3054;SDS011;1537;52.018;8.542;2022-11-15T20:12:04;5.50;;;3.30;;
3054;SDS011;1537;52.018;8.542;2022-11-15T20:15:29;5.13;;;3.53;;
3054;SDS011;1537;52.018;8.542;2022-11-15T20:18:52;5.33;;;3.37;;
3054;SDS011;1537;52.018;8.542;2022-11-15T20:22:16;4.90;;;3.03;;
3054;SDS011;1537;52.018;8.542;2022-11-15T20:25:45;5.50;;;3.70;;
3054;SDS011;1537;52.018;8.542;2022-11-15T20:29:15;13.53;;;4.10;;
3054;SDS011;1537;52.018;8.542;2022-11-15T20:32:41;5.50;;;3.67;;
3054;SDS011;1537;52.018;8.542;2022-11-15T20:36:10;4.93;;;3.33;;
3054;SDS011;1537;52.018;8.542;2022-11-15T20:39:35;5.47;;;3.70;;
3054;SDS011;1537;52.018;8.542;2022-11-15T20:43:00;6.33;;;3.97;;
3054;SDS011;1537;52.018;8.542;2022-11-15T20:46:23;7.40;;;4.23;;
3054;SDS011;1537;52.018;8.542;2022-11-15T20:49:47;6.43;;;3.27;;
3054;SDS011;1537;52.018;8.542;2022-11-15T20:53:11;6.63;;;3.70;;
3054;SDS011;1537;52.018;8.542;2022-11-15T20:56:35;5.80;;;3.40;;
3054;SDS011;1537;52.018;8.542;2022-11-15T21:00:01;5.70;;;4.20;;
3054;SDS011;1537;52.018;8.542;2022-11-15T21:03:27;6.27;;;4.03;;
3054;SDS011;1537;52.018;8.542;2022-11-15T21:06:51;6.80;;;3.97;;
3054;SDS011;1537;52.018;8.542;2022-11-15T21:10:14;5.50;;;3.53;;
3054;SDS011;1537;52.018;8.542;2022-11-15T21:13:56;5.53;;;4.17;;
3054;SDS011;1537;52.018;8.542;2022-11-15T21:17:22;10.30;;;5.20;;
3054;SDS011;1537;52.018;8.542;2022-11-15T21:20:48;5.43;;;3.80;;
3054;SDS011;1537;52.018;8.542;2022-11-15T21:24:15;4.33;;;3.20;;
3054;SDS011;1537;52.018;8.542;2022-11-15T21:27:42;7.67;;;3.63;;
3054;SDS011;1537;52.018;8.542;2022-11-15T21:31:07;4.87;;;3.00;;
3054;SDS011;1537;52.018;8.542;2022-11-15T21:34:35;5.30;;;3.07;;
3054;SDS011;1537;52.018;8.542;2022-11-15T21:38:03;5.47;;;3.23;;
3054;SDS011;1537;52.018;8.542;2022-11-15T21:41:26;6.17;;;3.13;;
3054;SDS011;1537;52.018;8.542;2022-11-15T21:44:54;6.43;;;4.30;;
3054;SDS011;1537;52.018;8.542;2022-11-15T21:48:21;4.53;;;3.10;;
3054;SDS011;1537;52.018;8.542;2022-11-15T21:51:48;5.83;;;3.40;;
3054;SDS011;1537;52.018;8.542;2022-11-15T21:55:12;6.87;;;3.90;;
3054;SDS011;1537;52.018;8.542;2022-11-15T21:58:36;5.57;;;3.10;;
3054;SDS011;1537;52.018;8.542;2022-11-15T22:02:00;5.53;;;4.30;;
3054;SDS011;1537;52.018;8.542;2022-11-15T22:05:38;5.97;;;4.07;;
3054;SDS011;1537;52.018;8.542;2022-11-15T22:09:07;6.40;;;3.60;;
3054;SDS011;1537;52.018;8.542;2022-11-15T22:12:31;5.60;;;3.97;;
3054;SDS011;1537;52.018;8.542;2022-11-15T22:15:55;6.30;;;3.63;;
3054;SDS011;1537;52.018;8.542;2022-11-15T22:19:18;6.07;;;4.00;;
3054;SDS011;1537;52.018;8.542;2022-11-15T22:22:43;6.10;;;5.00;;
3054;SDS011;1537;52.018;8.542;2022-11-15T22:26:09;7.47;;;6.87;;